createdAt,value
2023-03-01T00:01:22.936Z,99552.63
2023-03-01T00:03:50.695Z,99553.28
2023-03-01T00:06:19.063Z,99557.09
2023-03-01T00:08:46.649Z,99557.03
2023-03-01T00:11:18.092Z,99568.84
2023-03-01T00:13:46.527Z,99569.78
2023-03-01T00:16:22.829Z,99562.88
2023-03-01T00:18:51.571Z,99554.03
2023-03-01T00:21:21.260Z,99556.41
2023-03-01T00:23:49.633Z,99558.25
2023-03-01T00:26:19.277Z,99556.22
2023-03-01T00:28:47.601Z,99563.19
2023-03-01T00:31:25.964Z,99544.97
2023-03-01T00:33:58.088Z,99550.66
2023-03-01T00:36:29.099Z,99550.53
2023-03-01T00:38:56.934Z,99546.22
2023-03-01T00:41:24.627Z,99552.06
2023-03-01T00:43:51.965Z,99549.81
2023-03-01T00:46:21.665Z,99547.16
2023-03-01T00:48:50.655Z,99535.63
2023-03-01T00:51:26.669Z,99539.59
2023-03-01T00:53:55.817Z,99542.47
2023-03-01T00:56:23.164Z,99524.25
2023-03-01T00:58:50.433Z,99526.72
2023-03-01T01:01:20.714Z,99521.09
2023-03-01T01:03:53.341Z,99521.22
2023-03-01T01:06:26.703Z,99523.88
2023-03-01T01:08:54.884Z,99517.38
2023-03-01T01:11:25.069Z,99525.19
2023-03-01T01:13:52.864Z,99519.28
2023-03-01T01:16:22.924Z,99511.91
2023-03-01T01:18:50.569Z,99508.09
2023-03-01T01:21:23.727Z,99503.59
2023-03-01T01:23:52.117Z,99512.34
2023-03-01T01:26:21.255Z,99513.69
2023-03-01T01:28:51.462Z,99505.22
2023-03-01T01:31:19.928Z,99498.34
2023-03-01T01:33:47.269Z,99492.47
2023-03-01T01:36:14.500Z,99482.97
2023-03-01T01:38:43.432Z,99481.34
2023-03-01T01:41:12.846Z,99469.28
2023-03-01T01:43:44.111Z,99478.53
2023-03-01T01:46:26.318Z,99470.09
2023-03-01T01:49:16.494Z,99468.97
2023-03-01T01:51:46.606Z,99475.47
2023-03-01T01:54:19.506Z,99463.84
2023-03-01T01:56:54.234Z,99462.06
2023-03-01T01:59:25.559Z,99457.09
2023-03-01T02:01:53.897Z,99463.59
2023-03-01T02:04:21.858Z,99447.72
2023-03-01T02:06:56.913Z,99447.72
2023-03-01T02:09:24.970Z,99450.31
2023-03-01T02:11:53.075Z,99448.34
2023-03-01T02:14:20.579Z,99449.47
2023-03-01T02:16:48.375Z,99442.56
2023-03-01T02:19:32.069Z,99443.50
2023-03-01T02:22:19.594Z,99443.19
2023-03-01T02:24:52.415Z,99439.09
2023-03-01T02:27:25.735Z,99430.53
2023-03-01T02:29:53.304Z,99431.25
2023-03-01T02:32:26.046Z,99429.59
2023-03-01T02:34:55.635Z,99431.25
2023-03-01T02:37:25.775Z,99433.13
2023-03-01T02:40:18.365Z,99429.81
2023-03-01T02:42:58.500Z,99422.50
2023-03-01T02:45:27.681Z,99413.22
2023-03-01T02:47:56.451Z,99413.84
2023-03-01T02:50:52.479Z,99421.88
2023-03-01T02:53:28.945Z,99422.28
2023-03-01T02:55:56.400Z,99417.25
2023-03-01T02:58:23.642Z,99413.34
2023-03-01T03:00:51.548Z,99415.81
2023-03-01T03:03:21.572Z,99421.66
2023-03-01T03:05:49.402Z,99417.34
2023-03-01T03:08:24.872Z,99414.47
2023-03-01T03:10:52.988Z,99421.19
2023-03-01T03:13:20.241Z,99411.59
2023-03-01T03:15:47.446Z,99415.91
2023-03-01T03:18:17.691Z,99414.34
2023-03-01T03:20:45.604Z,99409.41
2023-03-01T03:23:14.008Z,99417.34
2023-03-01T03:25:41.192Z,99415.78
2023-03-01T03:28:11.592Z,99413.84
2023-03-01T03:30:41.071Z,99406.19
2023-03-01T03:33:10.666Z,99403.25
2023-03-01T03:35:43.922Z,99402.00
2023-03-01T03:38:16.821Z,99416.72
2023-03-01T03:40:50.567Z,99410.03
2023-03-01T03:43:23.588Z,99404.34
2023-03-01T03:45:52.029Z,99407.25
2023-03-01T03:48:20.216Z,99396.66
2023-03-01T03:50:52.930Z,99403.94
2023-03-01T03:53:21.298Z,99400.47
2023-03-01T03:55:50.391Z,99403.03
2023-03-01T03:58:20.674Z,99409.22
2023-03-01T04:00:50.707Z,99410.78
2023-03-01T04:03:19.848Z,99404.06
2023-03-01T04:05:48.314Z,99399.09
2023-03-01T04:08:15.570Z,99399.22
2023-03-01T04:10:45.992Z,99400.25
2023-03-01T04:13:16.327Z,99398.69
2023-03-01T04:15:46.669Z,99399.84
2023-03-01T04:18:15.849Z,99403.94
2023-03-01T04:20:43.769Z,99414.97
2023-03-01T04:23:17.326Z,99413.44
2023-03-01T04:25:58.031Z,99411.66
2023-03-01T04:28:28.287Z,99418.34
2023-03-01T04:30:57.860Z,99411.38
2023-03-01T04:33:25.979Z,99413.94
2023-03-01T04:35:53.858Z,99406.22
2023-03-01T04:38:22.333Z,99411.38
2023-03-01T04:40:49.711Z,99408.50
2023-03-01T04:43:16.931Z,99410.97
2023-03-01T04:45:44.325Z,99408.78
2023-03-01T04:48:11.574Z,99405.19
2023-03-01T04:50:38.809Z,99403.44
2023-03-01T04:53:06.061Z,99395.72
2023-03-01T04:55:34.399Z,99400.66
2023-03-01T04:58:01.574Z,99390.34
2023-03-01T05:00:28.853Z,99391.16
2023-03-01T05:02:58.974Z,99387.06
2023-03-01T05:05:32.528Z,99388.72
2023-03-01T05:08:02.483Z,99376.97
2023-03-01T05:10:31.485Z,99383.16
2023-03-01T05:12:59.640Z,99390.06
2023-03-01T05:15:28.983Z,99382.63
2023-03-01T05:18:00.121Z,99384.19
2023-03-01T05:20:29.555Z,99389.34
2023-03-01T05:23:00.875Z,99389.22
2023-03-01T05:25:28.279Z,99384.78
2023-03-01T05:27:55.450Z,99383.97
2023-03-01T05:30:22.897Z,99383.25
2023-03-01T05:32:56.783Z,99391.81
2023-03-01T05:35:24.613Z,99379.63
2023-03-01T05:37:52.399Z,99377.88
2023-03-01T05:40:22.423Z,99385.81
2023-03-01T05:42:55.209Z,99389.41
2023-03-01T05:45:23.718Z,99385.13
2023-03-01T05:47:51.690Z,99398.91
2023-03-01T05:50:22.286Z,99390.13
2023-03-01T05:53:00.858Z,99384.78
2023-03-01T05:55:29.465Z,99386.63
2023-03-01T05:57:59.693Z,99393.13
2023-03-01T06:00:27.722Z,99394.25
2023-03-01T06:02:56.422Z,99390.31
2023-03-01T06:05:24.302Z,99401.03
2023-03-01T06:07:52.221Z,99398.16
2023-03-01T06:10:21.150Z,99400.41
2023-03-01T06:12:48.492Z,99388.00
2023-03-01T06:15:17.822Z,99396.44
2023-03-01T06:17:46.942Z,99387.00
2023-03-01T06:20:15.638Z,99388.97
2023-03-01T06:22:44.355Z,99390.34
2023-03-01T06:25:13.595Z,99385.81
2023-03-01T06:27:41.528Z,99387.97
2023-03-01T06:30:11.575Z,99390.66
2023-03-01T06:32:42.927Z,99384.81
2023-03-01T06:35:12.012Z,99380.72
2023-03-01T06:37:40.192Z,99397.75
2023-03-01T06:40:09.169Z,99394.75
2023-03-01T06:42:36.876Z,99394.75
2023-03-01T06:45:05.967Z,99393.34
2023-03-01T06:47:34.172Z,99398.50
2023-03-01T06:50:02.451Z,99398.31
2023-03-01T06:52:30.392Z,99399.34
2023-03-01T06:54:57.565Z,99395.41
2023-03-01T06:57:24.859Z,99395.97
2023-03-01T06:59:52.080Z,99388.81
2023-03-01T07:02:19.608Z,99394.59
2023-03-01T07:04:46.986Z,99395.16
2023-03-01T07:07:14.116Z,99395.94
2023-03-01T07:09:41.237Z,99399.19
2023-03-01T07:12:09.004Z,99392.41
2023-03-01T07:14:36.170Z,99394.63
2023-03-01T07:17:03.359Z,99392.78
2023-03-01T07:19:30.578Z,99402.28
2023-03-01T07:21:57.949Z,99394.47
2023-03-01T07:24:25.315Z,99383.34
2023-03-01T07:26:53.023Z,99390.59
2023-03-01T07:29:20.519Z,99377.91
2023-03-01T07:31:47.768Z,99382.47
2023-03-01T07:34:15.021Z,99372.88
2023-03-01T07:36:44.086Z,99366.06
2023-03-01T07:39:12.535Z,99369.38
2023-03-01T07:41:39.720Z,99358.72
2023-03-01T07:44:07.695Z,99360.03
2023-03-01T07:46:34.886Z,99362.88
2023-03-01T07:49:02.090Z,99357.69
2023-03-01T07:51:29.344Z,99357.00
2023-03-01T07:53:56.456Z,99351.59
2023-03-01T07:56:23.630Z,99367.09
2023-03-01T07:58:51.270Z,99373.91
2023-03-01T08:01:21.317Z,99360.25
2023-03-01T08:03:49.318Z,99361.66
2023-03-01T08:06:17.974Z,99364.16
2023-03-01T08:08:46.018Z,99374.47
2023-03-01T08:11:15.083Z,99366.38
2023-03-01T08:13:43.227Z,99366.81
2023-03-01T08:16:16.041Z,99365.91
2023-03-01T08:18:44.440Z,99360.72
2023-03-01T08:21:14.142Z,99369.22
2023-03-01T08:23:41.740Z,99382.06
2023-03-01T08:26:19.558Z,99377.03
2023-03-01T08:28:48.135Z,99373.25
2023-03-01T08:31:15.424Z,99366.53
2023-03-01T08:33:43.008Z,99362.81
2023-03-01T08:36:10.352Z,99348.34
2023-03-01T08:38:37.588Z,99356.47
2023-03-01T08:41:05.382Z,99354.75
2023-03-01T08:43:32.633Z,99357.63
2023-03-01T08:45:59.868Z,99355.66
2023-03-01T08:48:29.106Z,99351.28
2023-03-01T08:50:56.721Z,99360.28
2023-03-01T08:53:24.021Z,99354.75
2023-03-01T08:55:51.314Z,99351.53
2023-03-01T08:58:18.478Z,99355.19
2023-03-01T09:00:45.605Z,99346.28
2023-03-01T09:03:12.742Z,99342.16
2023-03-01T09:05:39.913Z,99350.34
2023-03-01T09:08:09.273Z,99348.03
2023-03-01T09:10:39.222Z,99342.28
2023-03-01T09:13:06.422Z,99326.81
2023-03-01T09:15:34.447Z,99302.63
2023-03-01T09:18:01.641Z,99298.31
2023-03-01T09:20:28.921Z,99300.28
2023-03-01T09:22:56.073Z,99305.03
2023-03-01T09:25:23.921Z,99321.72
2023-03-01T09:27:54.603Z,99323.28
2023-03-01T09:30:22.395Z,99322.63
2023-03-01T09:32:49.562Z,99309.97
2023-03-01T09:35:16.901Z,99316.84
2023-03-01T09:37:46.298Z,99310.09
2023-03-01T09:40:17.248Z,99311.81
2023-03-01T09:42:59.459Z,99313.59
2023-03-01T09:45:34.043Z,99303.44
2023-03-01T09:48:02.845Z,99308.19
2023-03-01T09:50:40.523Z,99311.38
2023-03-01T09:53:18.908Z,99296.09
2023-03-01T09:56:13.657Z,99306.03
2023-03-01T09:58:55.175Z,99300.59
2023-03-01T10:01:33.861Z,99311.25
2023-03-01T10:04:29.701Z,99308.97
2023-03-01T10:07:12.224Z,99306.94
2023-03-01T10:09:42.953Z,99317.91
2023-03-01T10:12:13.580Z,99320.84
2023-03-01T10:14:58.769Z,99330.47
2023-03-01T10:17:37.024Z,99319.16
2023-03-01T10:20:27.736Z,99317.34
2023-03-01T10:22:56.279Z,99310.88
2023-03-01T10:25:43.589Z,99300.16
2023-03-01T10:28:35.607Z,99296.91
2023-03-01T10:31:04.454Z,99304.34
2023-03-01T10:33:38.404Z,99301.97
2023-03-01T10:36:05.856Z,99285.28
2023-03-01T10:38:50.625Z,99287.81
2023-03-01T10:41:17.979Z,99281.72
2023-03-01T10:43:56.514Z,99280.94
2023-03-01T10:46:38.521Z,99284.19
2023-03-01T10:49:18.982Z,99262.59
2023-03-01T10:51:49.029Z,99250.72
2023-03-01T10:54:23.186Z,99246.81
2023-03-01T10:56:54.692Z,99243.97
2023-03-01T10:59:31.457Z,99244.13
2023-03-01T11:02:24.455Z,99243.66
2023-03-01T11:05:25.007Z,99239.88
2023-03-01T11:07:57.784Z,99237.19
2023-03-01T11:10:30.541Z,99228.16
2023-03-01T11:13:16.437Z,99228.16
2023-03-01T11:15:44.513Z,99232.59
2023-03-01T11:18:25.096Z,99220.19
2023-03-01T11:21:01.043Z,99221.41
2023-03-01T11:23:30.196Z,99220.47
2023-03-01T11:26:03.728Z,99234.84
2023-03-01T11:28:31.498Z,99228.06
2023-03-01T11:31:13.197Z,99220.63
2023-03-01T11:34:03.960Z,99221.72
2023-03-01T11:36:47.027Z,99216.00
2023-03-01T11:39:38.761Z,99201.91
2023-03-01T11:42:19.418Z,99212.38
2023-03-01T11:44:51.072Z,99220.25
2023-03-01T11:47:40.344Z,99208.97
2023-03-01T11:50:41.228Z,99213.97
2023-03-01T11:53:26.273Z,99202.50
2023-03-01T11:56:22.184Z,99193.75
2023-03-01T11:59:28.344Z,99186.47
2023-03-01T12:02:19.616Z,99181.84
2023-03-01T12:05:01.931Z,99177.19
2023-03-01T12:07:59.616Z,99150.72
2023-03-01T12:10:36.841Z,99154.94
2023-03-01T12:13:31.147Z,99166.41
2023-03-01T12:16:39.068Z,99152.06
2023-03-01T12:19:32.956Z,99142.38
2023-03-01T12:22:09.176Z,99150.09
2023-03-01T12:24:56.994Z,99146.34
2023-03-01T12:27:43.717Z,99159.34
2023-03-01T12:30:28.998Z,99153.97
2023-03-01T12:33:23.808Z,99145.53
2023-03-01T12:36:15.438Z,99135.38
2023-03-01T12:39:15.121Z,99128.84
2023-03-01T12:42:24.146Z,99135.03
2023-03-01T12:45:15.987Z,99129.75
2023-03-01T12:47:52.069Z,99133.53
2023-03-01T12:50:30.842Z,99130.78
2023-03-01T12:52:58.856Z,99110.63
2023-03-01T12:55:32.077Z,99115.50
2023-03-01T12:58:22.259Z,99101.38
2023-03-01T13:01:04.826Z,99107.66
2023-03-01T13:04:03.116Z,99108.44
2023-03-01T13:06:51.477Z,99093.16
2023-03-01T13:09:24.436Z,99090.66
2023-03-01T13:11:51.589Z,99098.91
2023-03-01T13:14:21.618Z,99091.63
2023-03-01T13:16:51.687Z,99094.03
2023-03-01T13:19:21.504Z,99093.38
2023-03-01T13:21:51.082Z,99097.00
2023-03-01T13:24:39.891Z,99103.22
2023-03-01T13:27:07.124Z,99105.22
2023-03-01T13:29:46.564Z,99102.53
2023-03-01T13:32:43.066Z,99096.91
2023-03-01T13:35:21.178Z,99098.03
2023-03-01T13:37:48.684Z,99102.25
2023-03-01T13:40:23.476Z,99093.94
2023-03-01T13:43:04.843Z,99086.28
2023-03-01T13:45:44.100Z,99082.78
2023-03-01T13:48:24.918Z,99088.47
2023-03-01T13:50:57.144Z,99088.66
2023-03-01T13:53:27.444Z,99083.28
2023-03-01T13:56:28.754Z,99084.78
2023-03-01T13:59:00.644Z,99074.50
2023-03-01T14:01:36.847Z,99076.78
2023-03-01T14:04:21.415Z,99073.31
2023-03-01T14:06:48.674Z,99073.13
2023-03-01T14:09:28.262Z,99074.88
2023-03-01T14:12:28.418Z,99067.50
2023-03-01T14:15:15.765Z,99062.19
2023-03-01T14:17:55.038Z,99058.44
2023-03-01T14:20:24.007Z,99051.38
2023-03-01T14:22:55.629Z,99057.63
2023-03-01T14:25:32.176Z,99048.09
2023-03-01T14:28:23.871Z,99049.72
2023-03-01T14:30:56.910Z,99047.66
2023-03-01T14:33:34.414Z,99039.41
2023-03-01T14:36:05.061Z,99037.25
2023-03-01T14:38:36.583Z,99039.84
2023-03-01T14:41:17.205Z,99030.81
2023-03-01T14:43:47.887Z,99032.16
2023-03-01T14:46:39.905Z,99033.59
2023-03-01T14:49:23.975Z,99033.16
2023-03-01T14:52:03.033Z,99029.28
2023-03-01T14:54:42.201Z,99039.50
2023-03-01T14:57:18.494Z,99035.16
2023-03-01T14:59:46.803Z,99031.28
2023-03-01T15:02:18.556Z,99039.97
2023-03-01T15:04:52.439Z,99033.41
2023-03-01T15:07:20.067Z,99036.25
2023-03-01T15:09:47.759Z,99035.69
2023-03-01T15:12:30.110Z,99039.22
2023-03-01T15:15:04.271Z,99033.59
2023-03-01T15:17:35.775Z,99025.97
2023-03-01T15:20:07.752Z,99027.97
2023-03-01T15:22:36.308Z,99018.47
2023-03-01T15:25:03.690Z,99016.69
2023-03-01T15:27:30.963Z,99013.97
2023-03-01T15:30:04.441Z,99015.75
2023-03-01T15:32:33.076Z,99009.75
2023-03-01T15:35:21.870Z,99020.34
2023-03-01T15:37:49.934Z,99006.63
2023-03-01T15:40:33.764Z,99010.13
2023-03-01T15:43:27.389Z,99004.28
2023-03-01T15:45:59.157Z,99008.31
2023-03-01T15:48:27.387Z,99005.25
2023-03-01T15:51:02.414Z,99013.81
2023-03-01T15:53:29.567Z,99002.81
2023-03-01T15:55:56.689Z,99005.63
2023-03-01T15:58:25.664Z,99005.63
2023-03-01T16:01:02.126Z,99000.44
2023-03-01T16:03:30.122Z,98997.06
2023-03-01T16:05:57.836Z,98998.81
2023-03-01T16:08:25.164Z,98997.88
2023-03-01T16:10:52.591Z,98993.41
2023-03-01T16:13:20.257Z,98994.13
2023-03-01T16:15:47.724Z,98985.28
2023-03-01T16:18:14.861Z,98986.38
2023-03-01T16:20:42.183Z,98981.06
2023-03-01T16:23:11.705Z,98978.28
2023-03-01T16:25:39.078Z,98985.38
2023-03-01T16:28:10.330Z,98983.41
2023-03-01T16:30:40.586Z,98985.56
2023-03-01T16:33:24.383Z,98988.50
2023-03-01T16:35:56.728Z,98990.47
2023-03-01T16:38:24.072Z,98993.03
2023-03-01T16:40:52.806Z,98986.56
2023-03-01T16:43:20.205Z,98993.94
2023-03-01T16:45:47.553Z,98994.63
2023-03-01T16:48:15.017Z,98997.94
2023-03-01T16:50:42.407Z,99005.69
2023-03-01T16:53:09.744Z,99005.38
2023-03-01T16:55:37.374Z,99007.28
2023-03-01T16:58:05.449Z,99007.91
2023-03-01T17:00:32.792Z,99010.03
2023-03-01T17:02:59.998Z,99019.06
2023-03-01T17:05:27.272Z,99019.91
2023-03-01T17:07:56.650Z,99004.91
2023-03-01T17:10:23.946Z,99010.06
2023-03-01T17:12:51.329Z,99017.09
2023-03-01T17:15:18.819Z,99017.34
2023-03-01T17:17:46.027Z,99026.25
2023-03-01T17:20:13.685Z,99021.09
2023-03-01T17:22:40.919Z,99015.94
2023-03-01T17:25:09.700Z,99026.50
2023-03-01T17:27:38.445Z,99019.47
2023-03-01T17:30:08.078Z,99023.91
2023-03-01T17:32:35.410Z,99036.72
2023-03-01T17:35:02.647Z,99036.72
2023-03-01T17:37:29.798Z,99035.91
2023-03-01T17:39:57.044Z,99031.66
2023-03-01T17:42:24.258Z,99031.91
2023-03-01T17:44:51.406Z,99042.94
2023-03-01T17:47:18.699Z,99037.75
2023-03-01T17:49:45.907Z,99041.16
2023-03-01T17:52:13.173Z,99038.56
2023-03-01T17:54:40.425Z,99039.53
2023-03-01T17:57:07.691Z,99042.22
2023-03-01T17:59:38.062Z,99038.13
2023-03-01T18:02:05.505Z,99045.31
2023-03-01T18:04:32.796Z,99044.47
2023-03-01T18:07:00.114Z,99047.88
2023-03-01T18:09:27.710Z,99051.41
2023-03-01T18:11:54.929Z,99050.56
2023-03-01T18:14:22.339Z,99051.50
2023-03-01T18:16:49.679Z,99050.56
2023-03-01T18:19:16.959Z,99055.63
2023-03-01T18:21:44.588Z,99050.47
2023-03-01T18:24:11.838Z,99059.03
2023-03-01T18:26:40.210Z,99059.84
2023-03-01T18:29:08.343Z,99055.63
2023-03-01T18:31:35.680Z,99060.78
2023-03-01T18:34:03.430Z,99055.72
2023-03-01T18:36:35.632Z,99071.31
2023-03-01T18:39:05.417Z,99068.75
2023-03-01T18:41:33.662Z,99059.38
2023-03-01T18:44:02.041Z,99062.91
2023-03-01T18:46:29.469Z,99070.75
2023-03-01T18:48:56.730Z,99070.84
2023-03-01T18:51:28.392Z,99070.84
2023-03-01T18:53:58.635Z,99069.91
2023-03-01T18:56:28.464Z,99065.69
2023-03-01T18:58:56.407Z,99066.50
2023-03-01T19:01:25.980Z,99073.44
2023-03-01T19:03:53.999Z,99068.41
2023-03-01T19:06:21.366Z,99070.28
2023-03-01T19:08:48.957Z,99074.38
2023-03-01T19:11:19.500Z,99070.38
2023-03-01T19:13:47.899Z,99078.13
2023-03-01T19:16:17.849Z,99076.63
2023-03-01T19:18:51.459Z,99078.38
2023-03-01T19:21:20.702Z,99089.66
2023-03-01T19:23:49.092Z,99089.66
2023-03-01T19:26:19.424Z,99078.59
2023-03-01T19:28:47.882Z,99083.75
2023-03-01T19:31:17.872Z,99083.06
2023-03-01T19:33:45.303Z,99087.41
2023-03-01T19:36:13.938Z,99086.59
2023-03-01T19:38:42.613Z,99094.34
2023-03-01T19:41:12.622Z,99097.84
2023-03-01T19:43:39.845Z,99091.97
2023-03-01T19:46:07.092Z,99100.53
2023-03-01T19:48:34.517Z,99098.78
2023-03-01T19:51:01.740Z,99105.59
2023-03-01T19:53:29.234Z,99108.06
2023-03-01T19:56:01.145Z,99107.25
2023-03-01T19:58:30.635Z,99103.03
2023-03-01T20:00:59.129Z,99106.50
2023-03-01T20:03:35.934Z,99107.34
2023-03-01T20:06:12.025Z,99110.75
2023-03-01T20:08:39.187Z,99109.91
2023-03-01T20:11:09.163Z,99110.75
2023-03-01T20:13:36.754Z,99113.22
2023-03-01T20:16:04.905Z,99110.63
2023-03-01T20:18:32.380Z,99105.34
2023-03-01T20:21:00.165Z,99111.19
2023-03-01T20:23:27.938Z,99113.69
2023-03-01T20:26:03.745Z,99109.22
2023-03-01T20:28:30.948Z,99105.69
2023-03-01T20:31:11.971Z,99106.50
2023-03-01T20:33:39.788Z,99106.28
2023-03-01T20:36:08.575Z,99106.97
2023-03-01T20:38:36.558Z,99092.91
2023-03-01T20:41:07.554Z,99104.66
2023-03-01T20:43:35.656Z,99101.72
2023-03-01T20:46:07.586Z,99103.91
2023-03-01T20:48:34.907Z,99092.19
2023-03-01T20:51:06.533Z,99084.09
2023-03-01T20:53:34.020Z,99080.56
2023-03-01T20:56:05.866Z,99089.31
2023-03-01T20:58:33.852Z,99090.72
2023-03-01T21:01:01.662Z,99086.38
2023-03-01T21:03:29.280Z,99080.41
2023-03-01T21:05:57.978Z,99085.22
2023-03-01T21:08:25.777Z,99084.09
2023-03-01T21:10:53.697Z,99082.41
2023-03-01T21:13:21.847Z,99077.63
2023-03-01T21:16:10.540Z,99074.13
2023-03-01T21:18:38.005Z,99072.94
2023-03-01T21:21:10.420Z,99073.78
2023-03-01T21:23:39.705Z,99070.13
2023-03-01T21:26:12.918Z,99073.41
2023-03-01T21:28:42.034Z,99070.59
2023-03-01T21:31:22.433Z,99079.75
2023-03-01T21:33:54.767Z,99070.25
2023-03-01T21:36:23.474Z,99068.81
2023-03-01T21:38:52.345Z,99066.03
2023-03-01T21:41:23.041Z,99066.75
2023-03-01T21:43:53.030Z,99069.91
2023-03-01T21:46:25.133Z,99069.47
2023-03-01T21:48:54.869Z,99060.53
2023-03-01T21:51:24.548Z,99064.88
2023-03-01T21:53:52.520Z,99063.94
2023-03-01T21:56:22.144Z,99062.78
2023-03-01T21:58:49.971Z,99060.66
2023-03-01T22:01:21.287Z,99066.41
2023-03-01T22:03:48.503Z,99055.13
2023-03-01T22:06:22.718Z,99057.38
2023-03-01T22:09:04.556Z,99051.94
2023-03-01T22:11:34.370Z,99047.13
2023-03-01T22:14:01.681Z,99043.88
2023-03-01T22:16:31.486Z,99037.06
2023-03-01T22:18:59.093Z,99037.44
2023-03-01T22:21:27.063Z,99027.59
2023-03-01T22:23:55.897Z,99024.53
2023-03-01T22:26:33.205Z,99025.63
2023-03-01T22:29:02.672Z,99020.22
2023-03-01T22:31:30.368Z,99018.47
2023-03-01T22:33:58.451Z,99024.91
2023-03-01T22:36:26.235Z,99025.88
2023-03-01T22:38:59.392Z,99033.47
2023-03-01T22:41:32.345Z,99029.25
2023-03-01T22:43:59.534Z,99027.00
2023-03-01T22:46:27.801Z,99021.38
2023-03-01T22:48:55.884Z,99023.59
2023-03-01T22:51:26.058Z,99026.63
2023-03-01T22:53:53.399Z,99030.03
2023-03-01T22:56:24.235Z,99016.13
2023-03-01T22:58:51.643Z,99026.91
2023-03-01T23:01:21.570Z,99031.22
2023-03-01T23:03:49.684Z,99025.81
2023-03-01T23:06:19.081Z,99025.47
2023-03-01T23:08:50.980Z,99028.38
2023-03-01T23:11:19.982Z,99014.78
2023-03-01T23:13:47.233Z,99013.38
2023-03-01T23:16:15.228Z,99011.84
2023-03-01T23:18:43.160Z,99019.59
2023-03-01T23:21:16.370Z,99007.25
2023-03-01T23:23:43.928Z,99009.28
2023-03-01T23:26:11.166Z,99007.06
2023-03-01T23:28:41.262Z,99004.69
2023-03-01T23:31:11.284Z,98990.97
2023-03-01T23:33:38.489Z,99008.34
2023-03-01T23:36:26.256Z,99000.63
2023-03-01T23:38:57.828Z,98993.69
2023-03-01T23:41:28.429Z,98998.50
2023-03-01T23:43:58.758Z,98989.69
2023-03-01T23:46:28.881Z,98988.84
2023-03-01T23:48:56.682Z,98992.03
2023-03-01T23:51:24.683Z,98988.97
2023-03-01T23:53:57.711Z,98984.50
2023-03-01T23:56:31.533Z,98990.25
2023-03-01T23:59:02.640Z,98982.16
